sensor_id;sensor_type;location;lat;lon;timestamp;P1;durP1;ratioP1;P2;durP2;ratioP2
27209;SDS011;14721;42.668;23.386;2022-12-13T00:01:49;6.77;;;3.57;;
27209;SDS011;14721;42.668;23.386;2022-12-13T00:04:17;6.27;;;3.07;;
27209;SDS011;14721;42.668;23.386;2022-12-13T00:06:45;6.73;;;3.17;;
27209;SDS011;14721;42.668;23.386;2022-12-13T00:09:13;8.50;;;3.57;;
27209;SDS011;14721;42.668;23.386;2022-12-13T00:11:40;7.27;;;2.70;;
27209;SDS011;14721;42.668;23.386;2022-12-13T00:14:06;6.60;;;3.07;;
27209;SDS011;14721;42.668;23.386;2022-12-13T00:16:43;5.77;;;2.90;;
27209;SDS011;14721;42.668;23.386;2022-12-13T00:19:11;6.00;;;2.50;;
27209;SDS011;14721;42.668;23.386;2022-12-13T00:21:37;6.40;;;3.40;;
27209;SDS011;14721;42.668;23.386;2022-12-13T00:24:04;6.53;;;2.70;;
27209;SDS011;14721;42.668;23.386;2022-12-13T00:26:32;4.17;;;2.23;;
27209;SDS011;14721;42.668;23.386;2022-12-13T00:29:01;10.83;;;3.30;;
27209;SDS011;14721;42.668;23.386;2022-12-13T00:31:29;7.60;;;3.10;;
27209;SDS011;14721;42.668;23.386;2022-12-13T00:33:57;5.67;;;2.10;;
27209;SDS011;14721;42.668;23.386;2022-12-13T00:36:23;7.90;;;3.13;;
27209;SDS011;14721;42.668;23.386;2022-12-13T00:38:49;6.07;;;3.10;;
27209;SDS011;14721;42.668;23.386;2022-12-13T00:41:25;6.23;;;3.30;;
27209;SDS011;14721;42.668;23.386;2022-12-13T00:43:55;5.63;;;2.80;;
27209;SDS011;14721;42.668;23.386;2022-12-13T00:46:22;6.40;;;3.23;;
27209;SDS011;14721;42.668;23.386;2022-12-13T00:48:54;5.53;;;3.10;;
27209;SDS011;14721;42.668;23.386;2022-12-13T00:51:22;8.50;;;3.03;;
27209;SDS011;14721;42.668;23.386;2022-12-13T00:53:48;6.23;;;3.40;;
27209;SDS011;14721;42.668;23.386;2022-12-13T00:56:15;5.93;;;2.33;;
27209;SDS011;14721;42.668;23.386;2022-12-13T00:58:43;7.57;;;2.80;;
27209;SDS011;14721;42.668;23.386;2022-12-13T01:01:11;9.83;;;4.20;;
27209;SDS011;14721;42.668;23.386;2022-12-13T01:03:38;9.23;;;3.27;;
27209;SDS011;14721;42.668;23.386;2022-12-13T01:06:24;12.47;;;4.20;;
27209;SDS011;14721;42.668;23.386;2022-12-13T01:08:52;6.47;;;3.43;;
27209;SDS011;14721;42.668;23.386;2022-12-13T01:11:19;6.33;;;2.77;;
27209;SDS011;14721;42.668;23.386;2022-12-13T01:13:47;6.90;;;3.23;;
27209;SDS011;14721;42.668;23.386;2022-12-13T01:16:12;6.63;;;2.93;;
27209;SDS011;14721;42.668;23.386;2022-12-13T01:18:39;6.97;;;3.57;;
27209;SDS011;14721;42.668;23.386;2022-12-13T01:23:32;7.13;;;3.33;;
27209;SDS011;14721;42.668;23.386;2022-12-13T01:26:00;7.07;;;3.23;;
27209;SDS011;14721;42.668;23.386;2022-12-13T01:28:29;8.37;;;3.30;;
27209;SDS011;14721;42.668;23.386;2022-12-13T01:30:57;7.37;;;3.70;;
27209;SDS011;14721;42.668;23.386;2022-12-13T01:33:30;9.80;;;3.83;;
27209;SDS011;14721;42.668;23.386;2022-12-13T01:35:59;7.03;;;3.63;;
27209;SDS011;14721;42.668;23.386;2022-12-13T01:38:26;7.50;;;3.60;;
27209;SDS011;14721;42.668;23.386;2022-12-13T01:40:53;8.13;;;3.10;;
27209;SDS011;14721;42.668;23.386;2022-12-13T01:43:22;5.67;;;3.07;;
27209;SDS011;14721;42.668;23.386;2022-12-13T01:46:11;8.20;;;2.93;;
27209;SDS011;14721;42.668;23.386;2022-12-13T01:48:40;11.67;;;3.87;;
27209;SDS011;14721;42.668;23.386;2022-12-13T01:51:10;8.53;;;3.33;;
27209;SDS011;14721;42.668;23.386;2022-12-13T01:53:40;8.53;;;3.40;;
27209;SDS011;14721;42.668;23.386;2022-12-13T01:56:14;6.20;;;3.47;;
27209;SDS011;14721;42.668;23.386;2022-12-13T01:58:47;7.23;;;3.03;;
27209;SDS011;14721;42.668;23.386;2022-12-13T02:01:16;7.67;;;3.23;;
27209;SDS011;14721;42.668;23.386;2022-12-13T02:03:43;12.93;;;4.77;;
27209;SDS011;14721;42.668;23.386;2022-12-13T02:06:13;11.07;;;3.63;;
27209;SDS011;14721;42.668;23.386;2022-12-13T02:08:41;9.03;;;4.70;;
27209;SDS011;14721;42.668;23.386;2022-12-13T02:11:09;10.90;;;4.27;;
27209;SDS011;14721;42.668;23.386;2022-12-13T02:13:36;8.43;;;4.37;;
27209;SDS011;14721;42.668;23.386;2022-12-13T02:35:51;7.83;;;3.87;;
27209;SDS011;14721;42.668;23.386;2022-12-13T02:38:32;9.87;;;4.37;;
27209;SDS011;14721;42.668;23.386;2022-12-13T02:44:05;10.07;;;5.17;;
27209;SDS011;14721;42.668;23.386;2022-12-13T02:46:40;9.17;;;4.50;;
27209;SDS011;14721;42.668;23.386;2022-12-13T02:49:13;9.87;;;4.10;;
27209;SDS011;14721;42.668;23.386;2022-12-13T02:51:40;7.33;;;3.47;;
27209;SDS011;14721;42.668;23.386;2022-12-13T02:54:08;10.90;;;4.07;;
27209;SDS011;14721;42.668;23.386;2022-12-13T02:56:34;6.60;;;3.97;;
27209;SDS011;14721;42.668;23.386;2022-12-13T02:59:02;9.90;;;5.40;;
27209;SDS011;14721;42.668;23.386;2022-12-13T03:04:38;8.17;;;3.00;;
27209;SDS011;14721;42.668;23.386;2022-12-13T03:10:42;9.77;;;4.23;;
27209;SDS011;14721;42.668;23.386;2022-12-13T03:13:24;9.37;;;4.40;;
27209;SDS011;14721;42.668;23.386;2022-12-13T03:16:06;9.37;;;4.87;;
27209;SDS011;14721;42.668;23.386;2022-12-13T03:18:36;10.57;;;5.10;;
27209;SDS011;14721;42.668;23.386;2022-12-13T03:21:10;11.60;;;5.70;;
27209;SDS011;14721;42.668;23.386;2022-12-13T03:23:37;8.97;;;4.07;;
27209;SDS011;14721;42.668;23.386;2022-12-13T03:26:14;10.63;;;4.97;;
27209;SDS011;14721;42.668;23.386;2022-12-13T03:28:43;11.30;;;4.60;;
27209;SDS011;14721;42.668;23.386;2022-12-13T03:31:10;13.07;;;5.43;;
27209;SDS011;14721;42.668;23.386;2022-12-13T03:33:37;9.97;;;5.00;;
27209;SDS011;14721;42.668;23.386;2022-12-13T03:36:03;9.47;;;5.03;;
27209;SDS011;14721;42.668;23.386;2022-12-13T03:38:30;10.13;;;5.13;;
27209;SDS011;14721;42.668;23.386;2022-12-13T03:41:01;11.77;;;5.70;;
27209;SDS011;14721;42.668;23.386;2022-12-13T03:43:29;10.10;;;4.60;;
27209;SDS011;14721;42.668;23.386;2022-12-13T03:45:55;12.07;;;5.93;;
27209;SDS011;14721;42.668;23.386;2022-12-13T03:48:20;10.13;;;4.70;;
27209;SDS011;14721;42.668;23.386;2022-12-13T03:50:49;9.63;;;5.23;;
27209;SDS011;14721;42.668;23.386;2022-12-13T03:53:19;9.00;;;4.17;;
27209;SDS011;14721;42.668;23.386;2022-12-13T03:55:46;8.07;;;3.87;;
27209;SDS011;14721;42.668;23.386;2022-12-13T03:58:12;10.13;;;5.03;;
27209;SDS011;14721;42.668;23.386;2022-12-13T04:00:37;13.07;;;5.90;;
27209;SDS011;14721;42.668;23.386;2022-12-13T04:05:34;10.37;;;5.63;;
27209;SDS011;14721;42.668;23.386;2022-12-13T04:07:59;13.90;;;5.17;;
27209;SDS011;14721;42.668;23.386;2022-12-13T04:10:28;11.70;;;5.60;;
27209;SDS011;14721;42.668;23.386;2022-12-13T04:12:55;11.70;;;5.27;;
27209;SDS011;14721;42.668;23.386;2022-12-13T04:15:40;11.30;;;4.93;;
27209;SDS011;14721;42.668;23.386;2022-12-13T04:18:24;17.97;;;6.00;;
27209;SDS011;14721;42.668;23.386;2022-12-13T04:20:50;11.60;;;5.97;;
27209;SDS011;14721;42.668;23.386;2022-12-13T04:23:16;11.57;;;5.10;;
27209;SDS011;14721;42.668;23.386;2022-12-13T04:25:48;12.87;;;5.37;;
27209;SDS011;14721;42.668;23.386;2022-12-13T04:28:20;14.83;;;5.97;;
27209;SDS011;14721;42.668;23.386;2022-12-13T04:30:55;13.20;;;6.60;;
27209;SDS011;14721;42.668;23.386;2022-12-13T04:33:21;11.73;;;5.83;;
27209;SDS011;14721;42.668;23.386;2022-12-13T04:35:48;14.43;;;5.23;;
27209;SDS011;14721;42.668;23.386;2022-12-13T04:38:14;11.13;;;5.37;;
27209;SDS011;14721;42.668;23.386;2022-12-13T04:40:40;14.73;;;5.53;;
27209;SDS011;14721;42.668;23.386;2022-12-13T04:43:06;6.93;;;3.47;;
27209;SDS011;14721;42.668;23.386;2022-12-13T04:45:32;9.80;;;4.57;;
27209;SDS011;14721;42.668;23.386;2022-12-13T04:47:59;12.53;;;5.93;;
27209;SDS011;14721;42.668;23.386;2022-12-13T04:50:27;12.40;;;5.47;;
27209;SDS011;14721;42.668;23.386;2022-12-13T04:52:53;15.63;;;6.50;;
27209;SDS011;14721;42.668;23.386;2022-12-13T04:55:19;8.23;;;4.30;;
27209;SDS011;14721;42.668;23.386;2022-12-13T04:57:44;11.23;;;5.30;;
27209;SDS011;14721;42.668;23.386;2022-12-13T05:00:16;11.63;;;4.63;;
27209;SDS011;14721;42.668;23.386;2022-12-13T05:02:43;15.33;;;6.10;;
27209;SDS011;14721;42.668;23.386;2022-12-13T05:05:10;11.03;;;4.37;;
27209;SDS011;14721;42.668;23.386;2022-12-13T05:07:37;7.67;;;4.10;;
27209;SDS011;14721;42.668;23.386;2022-12-13T05:10:03;12.83;;;5.90;;
27209;SDS011;14721;42.668;23.386;2022-12-13T05:12:34;11.70;;;4.97;;
27209;SDS011;14721;42.668;23.386;2022-12-13T05:15:00;12.20;;;5.23;;
27209;SDS011;14721;42.668;23.386;2022-12-13T05:17:25;7.83;;;4.40;;
27209;SDS011;14721;42.668;23.386;2022-12-13T05:19:51;14.37;;;5.60;;
27209;SDS011;14721;42.668;23.386;2022-12-13T05:22:16;14.73;;;5.20;;
27209;SDS011;14721;42.668;23.386;2022-12-13T05:24:42;10.53;;;6.00;;
27209;SDS011;14721;42.668;23.386;2022-12-13T05:27:09;16.70;;;7.27;;
27209;SDS011;14721;42.668;23.386;2022-12-13T05:29:36;9.77;;;5.20;;
27209;SDS011;14721;42.668;23.386;2022-12-13T05:32:02;11.20;;;5.60;;
27209;SDS011;14721;42.668;23.386;2022-12-13T05:34:28;9.53;;;4.50;;
27209;SDS011;14721;42.668;23.386;2022-12-13T05:36:55;11.93;;;3.80;;
27209;SDS011;14721;42.668;23.386;2022-12-13T05:39:22;14.30;;;6.40;;
27209;SDS011;14721;42.668;23.386;2022-12-13T05:41:48;12.80;;;4.97;;
27209;SDS011;14721;42.668;23.386;2022-12-13T05:44:16;18.20;;;6.33;;
27209;SDS011;14721;42.668;23.386;2022-12-13T05:46:41;10.97;;;5.90;;
27209;SDS011;14721;42.668;23.386;2022-12-13T05:49:08;13.37;;;6.20;;
27209;SDS011;14721;42.668;23.386;2022-12-13T05:51:35;9.63;;;4.83;;
27209;SDS011;14721;42.668;23.386;2022-12-13T05:54:01;14.60;;;5.37;;
27209;SDS011;14721;42.668;23.386;2022-12-13T05:56:28;13.17;;;5.90;;
27209;SDS011;14721;42.668;23.386;2022-12-13T05:58:54;14.20;;;6.33;;
27209;SDS011;14721;42.668;23.386;2022-12-13T06:01:20;11.80;;;4.67;;
27209;SDS011;14721;42.668;23.386;2022-12-13T06:03:45;11.37;;;4.93;;
27209;SDS011;14721;42.668;23.386;2022-12-13T06:06:11;10.97;;;5.50;;
27209;SDS011;14721;42.668;23.386;2022-12-13T06:08:37;9.03;;;4.63;;
27209;SDS011;14721;42.668;23.386;2022-12-13T06:11:04;10.53;;;5.47;;
27209;SDS011;14721;42.668;23.386;2022-12-13T06:13:31;14.00;;;6.47;;
27209;SDS011;14721;42.668;23.386;2022-12-13T06:16:00;12.20;;;6.03;;
27209;SDS011;14721;42.668;23.386;2022-12-13T06:18:29;10.97;;;5.70;;
27209;SDS011;14721;42.668;23.386;2022-12-13T06:20:58;14.37;;;6.80;;
27209;SDS011;14721;42.668;23.386;2022-12-13T06:23:26;16.27;;;6.77;;
27209;SDS011;14721;42.668;23.386;2022-12-13T06:25:51;15.20;;;5.57;;
27209;SDS011;14721;42.668;23.386;2022-12-13T06:28:21;9.73;;;5.70;;
27209;SDS011;14721;42.668;23.386;2022-12-13T06:30:49;10.17;;;4.77;;
27209;SDS011;14721;42.668;23.386;2022-12-13T06:33:18;13.47;;;5.77;;
27209;SDS011;14721;42.668;23.386;2022-12-13T06:35:44;8.13;;;4.13;;
27209;SDS011;14721;42.668;23.386;2022-12-13T06:38:10;11.87;;;5.67;;
27209;SDS011;14721;42.668;23.386;2022-12-13T06:40:37;12.83;;;6.03;;
27209;SDS011;14721;42.668;23.386;2022-12-13T06:43:03;13.67;;;5.93;;
27209;SDS011;14721;42.668;23.386;2022-12-13T06:45:29;12.07;;;5.47;;
27209;SDS011;14721;42.668;23.386;2022-12-13T06:47:55;15.30;;;6.00;;
27209;SDS011;14721;42.668;23.386;2022-12-13T06:50:22;16.73;;;5.33;;
27209;SDS011;14721;42.668;23.386;2022-12-13T06:52:48;10.17;;;5.80;;
27209;SDS011;14721;42.668;23.386;2022-12-13T06:55:14;11.27;;;6.10;;
27209;SDS011;14721;42.668;23.386;2022-12-13T06:57:40;7.70;;;4.80;;
27209;SDS011;14721;42.668;23.386;2022-12-13T07:00:08;14.90;;;5.90;;
27209;SDS011;14721;42.668;23.386;2022-12-13T07:05:05;15.03;;;6.53;;
27209;SDS011;14721;42.668;23.386;2022-12-13T07:07:31;10.73;;;4.87;;
27209;SDS011;14721;42.668;23.386;2022-12-13T07:09:57;12.97;;;6.83;;
27209;SDS011;14721;42.668;23.386;2022-12-13T07:12:22;13.87;;;6.70;;
27209;SDS011;14721;42.668;23.386;2022-12-13T07:14:49;10.40;;;5.23;;
27209;SDS011;14721;42.668;23.386;2022-12-13T07:17:16;12.10;;;5.50;;
27209;SDS011;14721;42.668;23.386;2022-12-13T07:19:42;11.33;;;5.03;;
27209;SDS011;14721;42.668;23.386;2022-12-13T07:22:08;16.00;;;5.87;;
27209;SDS011;14721;42.668;23.386;2022-12-13T07:24:35;13.77;;;5.13;;
27209;SDS011;14721;42.668;23.386;2022-12-13T07:27:01;9.63;;;4.80;;
27209;SDS011;14721;42.668;23.386;2022-12-13T07:29:28;11.87;;;5.97;;
27209;SDS011;14721;42.668;23.386;2022-12-13T07:31:54;13.40;;;5.77;;
27209;SDS011;14721;42.668;23.386;2022-12-13T07:34:20;10.47;;;5.40;;
27209;SDS011;14721;42.668;23.386;2022-12-13T07:36:47;12.63;;;5.63;;
27209;SDS011;14721;42.668;23.386;2022-12-13T07:39:15;16.43;;;7.87;;
27209;SDS011;14721;42.668;23.386;2022-12-13T07:41:40;14.87;;;7.27;;
27209;SDS011;14721;42.668;23.386;2022-12-13T07:44:07;13.77;;;6.07;;
27209;SDS011;14721;42.668;23.386;2022-12-13T07:46:33;14.67;;;6.37;;
27209;SDS011;14721;42.668;23.386;2022-12-13T07:49:00;13.80;;;6.07;;
27209;SDS011;14721;42.668;23.386;2022-12-13T07:51:29;14.93;;;7.17;;
27209;SDS011;14721;42.668;23.386;2022-12-13T07:53:54;15.40;;;6.93;;
27209;SDS011;14721;42.668;23.386;2022-12-13T07:56:22;14.83;;;6.57;;
27209;SDS011;14721;42.668;23.386;2022-12-13T07:58:48;25.40;;;7.23;;
27209;SDS011;14721;42.668;23.386;2022-12-13T08:01:14;13.77;;;6.77;;
27209;SDS011;14721;42.668;23.386;2022-12-13T08:03:41;12.37;;;5.83;;
27209;SDS011;14721;42.668;23.386;2022-12-13T08:06:19;13.67;;;7.03;;
27209;SDS011;14721;42.668;23.386;2022-12-13T08:08:44;15.37;;;6.07;;
27209;SDS011;14721;42.668;23.386;2022-12-13T08:11:11;14.67;;;6.33;;
27209;SDS011;14721;42.668;23.386;2022-12-13T08:13:40;13.57;;;6.03;;
27209;SDS011;14721;42.668;23.386;2022-12-13T08:16:08;10.83;;;5.53;;
27209;SDS011;14721;42.668;23.386;2022-12-13T08:18:36;10.80;;;6.17;;
27209;SDS011;14721;42.668;23.386;2022-12-13T08:21:05;15.40;;;6.67;;
27209;SDS011;14721;42.668;23.386;2022-12-13T08:23:34;13.20;;;6.37;;
27209;SDS011;14721;42.668;23.386;2022-12-13T08:26:02;13.27;;;6.90;;
27209;SDS011;14721;42.668;23.386;2022-12-13T08:28:30;15.77;;;8.17;;
27209;SDS011;14721;42.668;23.386;2022-12-13T08:31:07;14.80;;;5.97;;
27209;SDS011;14721;42.668;23.386;2022-12-13T08:33:36;13.73;;;5.40;;
27209;SDS011;14721;42.668;23.386;2022-12-13T08:36:14;11.40;;;4.67;;
27209;SDS011;14721;42.668;23.386;2022-12-13T08:38:42;15.03;;;5.77;;
27209;SDS011;14721;42.668;23.386;2022-12-13T08:41:08;17.83;;;5.50;;
27209;SDS011;14721;42.668;23.386;2022-12-13T08:43:35;10.67;;;5.43;;
27209;SDS011;14721;42.668;23.386;2022-12-13T08:46:01;9.07;;;4.97;;
27209;SDS011;14721;42.668;23.386;2022-12-13T08:48:28;11.90;;;4.27;;
27209;SDS011;14721;42.668;23.386;2022-12-13T08:50:58;10.30;;;4.73;;
27209;SDS011;14721;42.668;23.386;2022-12-13T08:53:29;12.80;;;5.07;;
27209;SDS011;14721;42.668;23.386;2022-12-13T08:56:04;11.30;;;4.83;;
27209;SDS011;14721;42.668;23.386;2022-12-13T08:58:33;8.97;;;5.17;;
27209;SDS011;14721;42.668;23.386;2022-12-13T09:00:59;9.10;;;3.60;;
27209;SDS011;14721;42.668;23.386;2022-12-13T09:03:24;10.37;;;4.33;;
27209;SDS011;14721;42.668;23.386;2022-12-13T09:05:50;9.57;;;4.50;;
27209;SDS011;14721;42.668;23.386;2022-12-13T09:08:16;10.60;;;4.03;;
27209;SDS011;14721;42.668;23.386;2022-12-13T09:10:42;11.83;;;4.13;;
27209;SDS011;14721;42.668;23.386;2022-12-13T09:13:10;9.83;;;3.80;;
27209;SDS011;14721;42.668;23.386;2022-12-13T09:15:37;9.07;;;3.87;;
27209;SDS011;14721;42.668;23.386;2022-12-13T09:18:03;9.83;;;4.90;;
27209;SDS011;14721;42.668;23.386;2022-12-13T09:20:29;8.00;;;4.73;;
27209;SDS011;14721;42.668;23.386;2022-12-13T09:22:55;11.43;;;5.27;;
27209;SDS011;14721;42.668;23.386;2022-12-13T09:25:21;11.93;;;5.43;;
27209;SDS011;14721;42.668;23.386;2022-12-13T09:27:47;8.80;;;4.13;;
27209;SDS011;14721;42.668;23.386;2022-12-13T09:30:13;11.77;;;5.30;;
27209;SDS011;14721;42.668;23.386;2022-12-13T09:32:40;7.83;;;3.30;;
27209;SDS011;14721;42.668;23.386;2022-12-13T09:35:07;8.53;;;4.23;;
27209;SDS011;14721;42.668;23.386;2022-12-13T09:37:33;12.67;;;4.27;;
27209;SDS011;14721;42.668;23.386;2022-12-13T09:39:59;10.30;;;4.97;;
27209;SDS011;14721;42.668;23.386;2022-12-13T09:42:25;8.63;;;4.10;;
27209;SDS011;14721;42.668;23.386;2022-12-13T09:44:58;12.87;;;5.10;;
27209;SDS011;14721;42.668;23.386;2022-12-13T09:47:30;9.80;;;4.60;;
27209;SDS011;14721;42.668;23.386;2022-12-13T09:50:06;10.63;;;4.10;;
27209;SDS011;14721;42.668;23.386;2022-12-13T09:52:37;10.83;;;4.90;;
27209;SDS011;14721;42.668;23.386;2022-12-13T09:55:22;10.00;;;4.53;;
27209;SDS011;14721;42.668;23.386;2022-12-13T09:57:50;11.97;;;6.37;;
27209;SDS011;14721;42.668;23.386;2022-12-13T10:00:23;14.77;;;6.33;;
27209;SDS011;14721;42.668;23.386;2022-12-13T10:02:53;10.30;;;4.93;;
27209;SDS011;14721;42.668;23.386;2022-12-13T10:05:44;14.17;;;4.90;;
27209;SDS011;14721;42.668;23.386;2022-12-13T10:08:16;11.57;;;5.63;;
27209;SDS011;14721;42.668;23.386;2022-12-13T10:10:48;9.87;;;4.73;;
27209;SDS011;14721;42.668;23.386;2022-12-13T10:13:20;13.60;;;6.43;;
27209;SDS011;14721;42.668;23.386;2022-12-13T10:16:00;11.17;;;5.27;;
27209;SDS011;14721;42.668;23.386;2022-12-13T10:18:32;13.23;;;6.07;;
27209;SDS011;14721;42.668;23.386;2022-12-13T10:21:01;10.83;;;5.30;;
27209;SDS011;14721;42.668;23.386;2022-12-13T10:23:31;12.50;;;5.83;;
27209;SDS011;14721;42.668;23.386;2022-12-13T10:25:57;13.30;;;6.43;;
27209;SDS011;14721;42.668;23.386;2022-12-13T10:28:30;17.13;;;7.20;;
27209;SDS011;14721;42.668;23.386;2022-12-13T10:30:57;14.33;;;6.80;;
27209;SDS011;14721;42.668;23.386;2022-12-13T10:33:28;10.37;;;4.87;;
27209;SDS011;14721;42.668;23.386;2022-12-13T10:36:03;14.60;;;6.77;;
27209;SDS011;14721;42.668;23.386;2022-12-13T10:38:33;19.17;;;6.50;;
27209;SDS011;14721;42.668;23.386;2022-12-13T10:41:01;11.17;;;5.83;;
27209;SDS011;14721;42.668;23.386;2022-12-13T10:43:28;15.97;;;6.63;;
27209;SDS011;14721;42.668;23.386;2022-12-13T10:45:59;16.83;;;7.70;;
27209;SDS011;14721;42.668;23.386;2022-12-13T10:51:04;14.33;;;7.03;;
27209;SDS011;14721;42.668;23.386;2022-12-13T10:53:34;13.60;;;6.20;;
27209;SDS011;14721;42.668;23.386;2022-12-13T10:56:05;10.30;;;5.43;;
27209;SDS011;14721;42.668;23.386;2022-12-13T10:58:40;12.47;;;5.07;;
27209;SDS011;14721;42.668;23.386;2022-12-13T11:01:10;10.73;;;5.03;;
27209;SDS011;14721;42.668;23.386;2022-12-13T11:03:55;13.27;;;5.63;;
27209;SDS011;14721;42.668;23.386;2022-12-13T11:06:45;16.67;;;6.10;;
27209;SDS011;14721;42.668;23.386;2022-12-13T11:11:47;18.23;;;8.17;;
27209;SDS011;14721;42.668;23.386;2022-12-13T11:14:18;16.73;;;8.77;;
27209;SDS011;14721;42.668;23.386;2022-12-13T11:16:50;22.73;;;8.40;;
27209;SDS011;14721;42.668;23.386;2022-12-13T11:19:22;12.47;;;5.83;;
27209;SDS011;14721;42.668;23.386;2022-12-13T11:21:52;10.83;;;5.87;;
27209;SDS011;14721;42.668;23.386;2022-12-13T11:24:23;13.03;;;5.47;;
27209;SDS011;14721;42.668;23.386;2022-12-13T11:26:55;15.20;;;6.50;;
27209;SDS011;14721;42.668;23.386;2022-12-13T11:32:11;15.47;;;6.97;;
27209;SDS011;14721;42.668;23.386;2022-12-13T11:40:39;15.53;;;7.23;;
27209;SDS011;14721;42.668;23.386;2022-12-13T11:43:18;23.07;;;9.20;;
27209;SDS011;14721;42.668;23.386;2022-12-13T11:45:51;22.10;;;10.30;;
27209;SDS011;14721;42.668;23.386;2022-12-13T11:48:43;18.60;;;8.50;;
27209;SDS011;14721;42.668;23.386;2022-12-13T11:51:13;20.27;;;9.47;;
27209;SDS011;14721;42.668;23.386;2022-12-13T11:53:47;20.50;;;8.27;;
27209;SDS011;14721;42.668;23.386;2022-12-13T11:56:25;14.20;;;7.40;;
27209;SDS011;14721;42.668;23.386;2022-12-13T12:01:52;11.00;;;6.20;;
27209;SDS011;14721;42.668;23.386;2022-12-13T12:07:14;13.47;;;5.43;;
27209;SDS011;14721;42.668;23.386;2022-12-13T12:09:49;18.13;;;6.13;;
27209;SDS011;14721;42.668;23.386;2022-12-13T12:12:31;16.03;;;6.47;;
27209;SDS011;14721;42.668;23.386;2022-12-13T12:15:00;14.33;;;7.07;;
27209;SDS011;14721;42.668;23.386;2022-12-13T12:17:31;13.80;;;6.47;;
27209;SDS011;14721;42.668;23.386;2022-12-13T12:19:56;14.93;;;6.13;;
27209;SDS011;14721;42.668;23.386;2022-12-13T12:31:17;19.07;;;8.80;;
27209;SDS011;14721;42.668;23.386;2022-12-13T12:36:53;24.07;;;9.77;;
27209;SDS011;14721;42.668;23.386;2022-12-13T12:42:42;19.97;;;9.03;;
27209;SDS011;14721;42.668;23.386;2022-12-13T12:53:25;20.10;;;9.47;;
27209;SDS011;14721;42.668;23.386;2022-12-13T12:56:18;21.00;;;8.97;;
27209;SDS011;14721;42.668;23.386;2022-12-13T13:04:07;19.93;;;9.87;;
27209;SDS011;14721;42.668;23.386;2022-12-13T13:06:37;28.87;;;11.47;;
27209;SDS011;14721;42.668;23.386;2022-12-13T13:09:08;20.00;;;9.73;;
27209;SDS011;14721;42.668;23.386;2022-12-13T13:11:38;20.83;;;10.97;;
27209;SDS011;14721;42.668;23.386;2022-12-13T13:17:47;18.93;;;9.03;;
27209;SDS011;14721;42.668;23.386;2022-12-13T13:22:30;28.33;;;10.37;;
27209;SDS011;14721;42.668;23.386;2022-12-13T13:27:35;24.83;;;10.93;;
27209;SDS011;14721;42.668;23.386;2022-12-13T13:30:26;20.57;;;9.93;;
27209;SDS011;14721;42.668;23.386;2022-12-13T13:32:52;23.33;;;9.23;;
27209;SDS011;14721;42.668;23.386;2022-12-13T13:37:58;23.13;;;10.30;;
27209;SDS011;14721;42.668;23.386;2022-12-13T13:40:39;16.03;;;8.40;;
27209;SDS011;14721;42.668;23.386;2022-12-13T13:51:26;22.10;;;10.43;;
27209;SDS011;14721;42.668;23.386;2022-12-13T14:05:36;23.97;;;10.57;;
27209;SDS011;14721;42.668;23.386;2022-12-13T14:11:12;24.40;;;10.33;;
27209;SDS011;14721;42.668;23.386;2022-12-13T14:19:38;22.27;;;10.57;;
27209;SDS011;14721;42.668;23.386;2022-12-13T14:30:24;27.50;;;9.03;;
27209;SDS011;14721;42.668;23.386;2022-12-13T14:32:53;18.47;;;9.43;;
27209;SDS011;14721;42.668;23.386;2022-12-13T14:37:55;22.87;;;9.50;;
27209;SDS011;14721;42.668;23.386;2022-12-13T14:40:33;21.97;;;10.43;;
27209;SDS011;14721;42.668;23.386;2022-12-13T14:43:01;27.00;;;10.50;;
27209;SDS011;14721;42.668;23.386;2022-12-13T14:45:28;27.13;;;10.67;;
27209;SDS011;14721;42.668;23.386;2022-12-13T14:47:58;21.93;;;11.77;;
27209;SDS011;14721;42.668;23.386;2022-12-13T14:50:26;28.73;;;12.20;;
27209;SDS011;14721;42.668;23.386;2022-12-13T14:52:53;26.63;;;10.67;;
27209;SDS011;14721;42.668;23.386;2022-12-13T14:55:21;23.73;;;9.50;;
27209;SDS011;14721;42.668;23.386;2022-12-13T14:57:53;19.90;;;10.27;;
27209;SDS011;14721;42.668;23.386;2022-12-13T15:00:24;19.87;;;11.57;;
27209;SDS011;14721;42.668;23.386;2022-12-13T15:02:54;24.93;;;11.17;;
27209;SDS011;14721;42.668;23.386;2022-12-13T15:05:32;26.77;;;10.80;;
27209;SDS011;14721;42.668;23.386;2022-12-13T15:08:10;23.67;;;10.93;;
27209;SDS011;14721;42.668;23.386;2022-12-13T15:10:44;27.70;;;11.50;;
27209;SDS011;14721;42.668;23.386;2022-12-13T15:16:00;29.30;;;11.10;;
27209;SDS011;14721;42.668;23.386;2022-12-13T15:18:30;27.17;;;11.03;;
27209;SDS011;14721;42.668;23.386;2022-12-13T15:20:59;23.90;;;11.50;;
27209;SDS011;14721;42.668;23.386;2022-12-13T15:23:25;23.33;;;11.90;;
27209;SDS011;14721;42.668;23.386;2022-12-13T15:25:59;27.83;;;13.10;;
27209;SDS011;14721;42.668;23.386;2022-12-13T15:28:36;25.80;;;11.23;;
27209;SDS011;14721;42.668;23.386;2022-12-13T15:31:06;29.30;;;11.93;;
27209;SDS011;14721;42.668;23.386;2022-12-13T15:33:39;27.57;;;11.67;;
27209;SDS011;14721;42.668;23.386;2022-12-13T15:36:13;29.00;;;14.47;;
27209;SDS011;14721;42.668;23.386;2022-12-13T15:41:20;24.63;;;13.50;;
27209;SDS011;14721;42.668;23.386;2022-12-13T15:43:52;29.30;;;13.20;;
27209;SDS011;14721;42.668;23.386;2022-12-13T15:46:28;33.77;;;13.73;;
27209;SDS011;14721;42.668;23.386;2022-12-13T15:49:02;32.90;;;13.73;;
27209;SDS011;14721;42.668;23.386;2022-12-13T15:51:30;28.63;;;13.53;;
27209;SDS011;14721;42.668;23.386;2022-12-13T15:56:35;31.77;;;13.50;;
27209;SDS011;14721;42.668;23.386;2022-12-13T15:59:23;29.00;;;14.03;;
27209;SDS011;14721;42.668;23.386;2022-12-13T16:01:54;28.13;;;13.17;;
27209;SDS011;14721;42.668;23.386;2022-12-13T16:04:26;42.83;;;17.23;;
27209;SDS011;14721;42.668;23.386;2022-12-13T16:06:59;29.27;;;13.67;;
27209;SDS011;14721;42.668;23.386;2022-12-13T16:09:27;28.50;;;12.30;;
27209;SDS011;14721;42.668;23.386;2022-12-13T16:12:01;32.57;;;14.23;;
27209;SDS011;14721;42.668;23.386;2022-12-13T16:16:57;21.87;;;11.40;;
27209;SDS011;14721;42.668;23.386;2022-12-13T16:19:31;22.53;;;11.80;;
27209;SDS011;14721;42.668;23.386;2022-12-13T16:22:02;20.37;;;11.40;;
27209;SDS011;14721;42.668;23.386;2022-12-13T16:24:28;20.80;;;9.70;;
27209;SDS011;14721;42.668;23.386;2022-12-13T16:26:55;21.23;;;10.53;;
27209;SDS011;14721;42.668;23.386;2022-12-13T16:29:21;23.30;;;9.23;;
27209;SDS011;14721;42.668;23.386;2022-12-13T16:31:48;19.00;;;10.97;;
27209;SDS011;14721;42.668;23.386;2022-12-13T16:34:14;24.30;;;10.10;;
27209;SDS011;14721;42.668;23.386;2022-12-13T16:36:50;21.97;;;10.20;;
27209;SDS011;14721;42.668;23.386;2022-12-13T16:39:17;22.60;;;10.20;;
27209;SDS011;14721;42.668;23.386;2022-12-13T16:44:36;20.60;;;9.13;;
27209;SDS011;14721;42.668;23.386;2022-12-13T16:47:06;31.23;;;13.83;;
27209;SDS011;14721;42.668;23.386;2022-12-13T16:49:34;35.70;;;14.17;;
27209;SDS011;14721;42.668;23.386;2022-12-13T16:52:05;42.13;;;14.10;;
27209;SDS011;14721;42.668;23.386;2022-12-13T16:54:31;37.23;;;15.40;;
27209;SDS011;14721;42.668;23.386;2022-12-13T16:56:59;36.00;;;15.90;;
27209;SDS011;14721;42.668;23.386;2022-12-13T16:59:25;35.27;;;15.77;;
27209;SDS011;14721;42.668;23.386;2022-12-13T17:01:51;34.23;;;14.90;;
27209;SDS011;14721;42.668;23.386;2022-12-13T17:04:22;28.27;;;14.37;;
27209;SDS011;14721;42.668;23.386;2022-12-13T17:06:48;24.17;;;12.30;;